sensor_id;sensor_type;location;lat;lon;timestamp;temperature;humidity
70079;DHT22;57451;52.496;13.456;2023-04-30T00:00:22;9.90;58.40
70079;DHT22;57451;52.496;13.456;2023-04-30T00:02:50;9.90;58.20
70079;DHT22;57451;52.496;13.456;2023-04-30T00:05:17;9.80;58.30
70079;DHT22;57451;52.496;13.456;2023-04-30T00:07:46;9.80;58.20
70079;DHT22;57451;52.496;13.456;2023-04-30T00:10:13;9.70;58.40
70079;DHT22;57451;52.496;13.456;2023-04-30T00:12:40;9.70;58.40
70079;DHT22;57451;52.496;13.456;2023-04-30T00:15:08;9.60;58.40
70079;DHT22;57451;52.496;13.456;2023-04-30T00:17:36;9.60;58.40
70079;DHT22;57451;52.496;13.456;2023-04-30T00:20:04;9.60;58.50
70079;DHT22;57451;52.496;13.456;2023-04-30T00:22:32;9.60;58.40
70079;DHT22;57451;52.496;13.456;2023-04-30T00:25:01;9.50;58.60
70079;DHT22;57451;52.496;13.456;2023-04-30T00:27:28;9.40;58.60
70079;DHT22;57451;52.496;13.456;2023-04-30T00:29:56;9.40;58.60
70079;DHT22;57451;52.496;13.456;2023-04-30T00:32:23;9.40;58.50
70079;DHT22;57451;52.496;13.456;2023-04-30T00:34:51;9.40;58.50
70079;DHT22;57451;52.496;13.456;2023-04-30T00:37:19;9.30;58.60
70079;DHT22;57451;52.496;13.456;2023-04-30T00:39:46;9.30;58.60
70079;DHT22;57451;52.496;13.456;2023-04-30T00:42:14;9.30;58.70
70079;DHT22;57451;52.496;13.456;2023-04-30T00:44:42;9.20;58.80
70079;DHT22;57451;52.496;13.456;2023-04-30T00:47:09;9.20;58.80
70079;DHT22;57451;52.496;13.456;2023-04-30T00:49:37;9.20;58.70
70079;DHT22;57451;52.496;13.456;2023-04-30T00:52:04;9.20;58.70
70079;DHT22;57451;52.496;13.456;2023-04-30T00:54:32;9.10;58.90
70079;DHT22;57451;52.496;13.456;2023-04-30T00:56:59;9.10;58.80
70079;DHT22;57451;52.496;13.456;2023-04-30T00:59:28;9.00;58.90
70079;DHT22;57451;52.496;13.456;2023-04-30T01:02:02;9.00;59.00
70079;DHT22;57451;52.496;13.456;2023-04-30T01:04:30;8.90;59.00
70079;DHT22;57451;52.496;13.456;2023-04-30T01:06:59;8.90;59.20
70079;DHT22;57451;52.496;13.456;2023-04-30T01:09:28;8.90;59.40
70079;DHT22;57451;52.496;13.456;2023-04-30T01:12:12;8.90;59.10
70079;DHT22;57451;52.496;13.456;2023-04-30T01:14:52;8.80;59.10
70079;DHT22;57451;52.496;13.456;2023-04-30T01:17:26;8.80;59.10
70079;DHT22;57451;52.496;13.456;2023-04-30T01:19:55;8.80;59.30
70079;DHT22;57451;52.496;13.456;2023-04-30T01:22:35;8.80;59.20
70079;DHT22;57451;52.496;13.456;2023-04-30T01:25:18;8.70;59.20
70079;DHT22;57451;52.496;13.456;2023-04-30T01:28:03;8.70;59.20
70079;DHT22;57451;52.496;13.456;2023-04-30T01:30:32;8.70;59.30
70079;DHT22;57451;52.496;13.456;2023-04-30T01:32:59;8.60;59.40
70079;DHT22;57451;52.496;13.456;2023-04-30T01:35:38;8.60;59.50
70079;DHT22;57451;52.496;13.456;2023-04-30T01:38:13;8.60;59.50
70079;DHT22;57451;52.496;13.456;2023-04-30T01:40:47;8.50;59.60
70079;DHT22;57451;52.496;13.456;2023-04-30T01:43:25;8.40;59.80
70079;DHT22;57451;52.496;13.456;2023-04-30T01:46:03;8.40;60.20
70079;DHT22;57451;52.496;13.456;2023-04-30T01:48:39;8.40;60.00
70079;DHT22;57451;52.496;13.456;2023-04-30T01:51:15;8.30;60.30
70079;DHT22;57451;52.496;13.456;2023-04-30T01:53:45;8.30;60.70
70079;DHT22;57451;52.496;13.456;2023-04-30T01:56:17;8.30;60.80
70079;DHT22;57451;52.496;13.456;2023-04-30T01:58:49;8.30;61.00
70079;DHT22;57451;52.496;13.456;2023-04-30T02:01:25;8.20;61.00
70079;DHT22;57451;52.496;13.456;2023-04-30T02:03:52;8.20;61.10
70079;DHT22;57451;52.496;13.456;2023-04-30T02:06:21;8.20;61.20
70079;DHT22;57451;52.496;13.456;2023-04-30T02:08:48;8.20;61.60
70079;DHT22;57451;52.496;13.456;2023-04-30T02:11:16;8.20;61.70
70079;DHT22;57451;52.496;13.456;2023-04-30T02:13:43;8.10;61.70
70079;DHT22;57451;52.496;13.456;2023-04-30T02:16:12;8.10;61.70
70079;DHT22;57451;52.496;13.456;2023-04-30T02:18:39;8.10;61.80
70079;DHT22;57451;52.496;13.456;2023-04-30T02:21:06;8.00;62.10
70079;DHT22;57451;52.496;13.456;2023-04-30T02:23:34;8.00;61.90
70079;DHT22;57451;52.496;13.456;2023-04-30T02:26:01;8.00;62.10
70079;DHT22;57451;52.496;13.456;2023-04-30T02:28:29;7.90;62.40
70079;DHT22;57451;52.496;13.456;2023-04-30T02:30:57;7.90;62.50
70079;DHT22;57451;52.496;13.456;2023-04-30T02:33:25;7.90;62.30
70079;DHT22;57451;52.496;13.456;2023-04-30T02:35:53;7.90;62.20
70079;DHT22;57451;52.496;13.456;2023-04-30T02:38:21;7.90;62.50
70079;DHT22;57451;52.496;13.456;2023-04-30T02:40:48;7.80;62.50
70079;DHT22;57451;52.496;13.456;2023-04-30T02:43:15;7.80;62.70
70079;DHT22;57451;52.496;13.456;2023-04-30T02:45:43;7.80;62.60
70079;DHT22;57451;52.496;13.456;2023-04-30T02:48:10;7.80;62.60
70079;DHT22;57451;52.496;13.456;2023-04-30T02:50:38;7.80;62.60
70079;DHT22;57451;52.496;13.456;2023-04-30T02:53:06;7.80;62.50
70079;DHT22;57451;52.496;13.456;2023-04-30T02:55:33;7.70;62.40
70079;DHT22;57451;52.496;13.456;2023-04-30T02:58:00;7.70;62.40
70079;DHT22;57451;52.496;13.456;2023-04-30T03:00:28;7.60;62.70
70079;DHT22;57451;52.496;13.456;2023-04-30T03:02:55;7.70;63.00
70079;DHT22;57451;52.496;13.456;2023-04-30T03:05:23;7.60;62.90
70079;DHT22;57451;52.496;13.456;2023-04-30T03:07:51;7.60;63.30
70079;DHT22;57451;52.496;13.456;2023-04-30T03:10:19;7.50;63.40
70079;DHT22;57451;52.496;13.456;2023-04-30T03:12:46;7.50;63.50
70079;DHT22;57451;52.496;13.456;2023-04-30T03:15:13;7.50;63.60
70079;DHT22;57451;52.496;13.456;2023-04-30T03:17:40;7.40;63.40
70079;DHT22;57451;52.496;13.456;2023-04-30T03:20:12;7.50;63.20
70079;DHT22;57451;52.496;13.456;2023-04-30T03:22:40;7.40;63.30
70079;DHT22;57451;52.496;13.456;2023-04-30T03:25:10;7.40;63.60
70079;DHT22;57451;52.496;13.456;2023-04-30T03:27:37;7.40;63.90
70079;DHT22;57451;52.496;13.456;2023-04-30T03:30:06;7.30;64.30
70079;DHT22;57451;52.496;13.456;2023-04-30T03:32:33;7.20;64.50
70079;DHT22;57451;52.496;13.456;2023-04-30T03:35:00;7.20;64.10
70079;DHT22;57451;52.496;13.456;2023-04-30T03:37:28;7.20;64.30
70079;DHT22;57451;52.496;13.456;2023-04-30T03:39:55;7.20;64.30
70079;DHT22;57451;52.496;13.456;2023-04-30T03:42:24;7.20;64.30
70079;DHT22;57451;52.496;13.456;2023-04-30T03:44:52;7.20;64.50
70079;DHT22;57451;52.496;13.456;2023-04-30T03:47:19;7.10;64.80
70079;DHT22;57451;52.496;13.456;2023-04-30T03:49:46;7.10;64.70
70079;DHT22;57451;52.496;13.456;2023-04-30T03:52:22;7.10;64.70
70079;DHT22;57451;52.496;13.456;2023-04-30T03:54:50;7.10;64.60
70079;DHT22;57451;52.496;13.456;2023-04-30T03:57:18;7.10;64.50
70079;DHT22;57451;52.496;13.456;2023-04-30T03:59:48;7.10;64.30
70079;DHT22;57451;52.496;13.456;2023-04-30T04:02:16;7.10;64.00
70079;DHT22;57451;52.496;13.456;2023-04-30T04:04:43;7.10;64.40
70079;DHT22;57451;52.496;13.456;2023-04-30T04:07:10;7.10;64.40
70079;DHT22;57451;52.496;13.456;2023-04-30T04:09:38;7.10;64.50
70079;DHT22;57451;52.496;13.456;2023-04-30T04:12:05;7.00;64.60
70079;DHT22;57451;52.496;13.456;2023-04-30T04:14:32;7.00;64.70
70079;DHT22;57451;52.496;13.456;2023-04-30T04:17:02;6.90;64.80
70079;DHT22;57451;52.496;13.456;2023-04-30T04:19:32;6.90;64.90
70079;DHT22;57451;52.496;13.456;2023-04-30T04:21:59;6.90;65.10
70079;DHT22;57451;52.496;13.456;2023-04-30T04:24:27;6.90;65.20
70079;DHT22;57451;52.496;13.456;2023-04-30T04:26:54;6.90;65.10
70079;DHT22;57451;52.496;13.456;2023-04-30T04:29:22;6.90;65.00
70079;DHT22;57451;52.496;13.456;2023-04-30T04:31:49;6.80;65.40
70079;DHT22;57451;52.496;13.456;2023-04-30T04:34:20;6.70;65.70
70079;DHT22;57451;52.496;13.456;2023-04-30T04:36:47;6.70;65.60
70079;DHT22;57451;52.496;13.456;2023-04-30T04:39:14;6.70;66.10
70079;DHT22;57451;52.496;13.456;2023-04-30T04:41:42;6.70;66.00
70079;DHT22;57451;52.496;13.456;2023-04-30T04:44:09;6.70;65.90
70079;DHT22;57451;52.496;13.456;2023-04-30T04:46:37;6.70;65.70
70079;DHT22;57451;52.496;13.456;2023-04-30T04:49:04;6.70;65.50
70079;DHT22;57451;52.496;13.456;2023-04-30T04:51:33;6.80;65.30
70079;DHT22;57451;52.496;13.456;2023-04-30T04:54:01;6.70;65.60
70079;DHT22;57451;52.496;13.456;2023-04-30T04:56:28;6.70;65.60
70079;DHT22;57451;52.496;13.456;2023-04-30T04:59:00;6.70;65.60
70079;DHT22;57451;52.496;13.456;2023-04-30T05:01:31;6.70;65.70
70079;DHT22;57451;52.496;13.456;2023-04-30T05:03:58;6.70;65.60
70079;DHT22;57451;52.496;13.456;2023-04-30T05:06:26;6.70;65.40
70079;DHT22;57451;52.496;13.456;2023-04-30T05:08:56;6.80;65.20
70079;DHT22;57451;52.496;13.456;2023-04-30T05:11:23;6.70;65.40
70079;DHT22;57451;52.496;13.456;2023-04-30T05:13:51;6.80;65.20
70079;DHT22;57451;52.496;13.456;2023-04-30T05:16:18;6.70;65.60
70079;DHT22;57451;52.496;13.456;2023-04-30T05:18:46;6.70;65.60
70079;DHT22;57451;52.496;13.456;2023-04-30T05:21:13;6.80;65.30
70079;DHT22;57451;52.496;13.456;2023-04-30T05:23:40;6.80;65.10
70079;DHT22;57451;52.496;13.456;2023-04-30T05:26:09;6.80;65.10
70079;DHT22;57451;52.496;13.456;2023-04-30T05:28:36;6.90;65.20
70079;DHT22;57451;52.496;13.456;2023-04-30T05:31:03;6.90;65.20
70079;DHT22;57451;52.496;13.456;2023-04-30T05:33:30;6.90;65.30
70079;DHT22;57451;52.496;13.456;2023-04-30T05:35:58;6.90;65.50
70079;DHT22;57451;52.496;13.456;2023-04-30T05:38:25;6.90;65.40
70079;DHT22;57451;52.496;13.456;2023-04-30T05:40:52;7.00;65.20
70079;DHT22;57451;52.496;13.456;2023-04-30T05:43:21;7.10;65.20
70079;DHT22;57451;52.496;13.456;2023-04-30T05:45:48;7.10;65.10
70079;DHT22;57451;52.496;13.456;2023-04-30T05:48:16;7.20;64.60
70079;DHT22;57451;52.496;13.456;2023-04-30T05:50:43;7.20;64.50
70079;DHT22;57451;52.496;13.456;2023-04-30T05:53:10;7.20;64.40
70079;DHT22;57451;52.496;13.456;2023-04-30T05:55:38;7.30;64.10
70079;DHT22;57451;52.496;13.456;2023-04-30T05:58:06;7.40;63.90
70079;DHT22;57451;52.496;13.456;2023-04-30T06:00:34;7.40;63.80
70079;DHT22;57451;52.496;13.456;2023-04-30T06:03:02;7.50;64.00
70079;DHT22;57451;52.496;13.456;2023-04-30T06:05:29;7.50;63.60
70079;DHT22;57451;52.496;13.456;2023-04-30T06:07:56;7.60;63.60
70079;DHT22;57451;52.496;13.456;2023-04-30T06:10:24;7.70;63.00
70079;DHT22;57451;52.496;13.456;2023-04-30T06:13:01;7.80;62.70
70079;DHT22;57451;52.496;13.456;2023-04-30T06:15:31;7.80;62.60
70079;DHT22;57451;52.496;13.456;2023-04-30T06:18:00;7.80;62.60
70079;DHT22;57451;52.496;13.456;2023-04-30T06:20:27;7.90;62.50
70079;DHT22;57451;52.496;13.456;2023-04-30T06:22:55;8.00;62.60
70079;DHT22;57451;52.496;13.456;2023-04-30T06:25:22;8.10;62.60
70079;DHT22;57451;52.496;13.456;2023-04-30T06:27:49;8.10;62.50
70079;DHT22;57451;52.496;13.456;2023-04-30T06:30:20;8.20;62.30
70079;DHT22;57451;52.496;13.456;2023-04-30T06:32:47;8.30;61.90
70079;DHT22;57451;52.496;13.456;2023-04-30T06:35:16;8.40;61.10
70079;DHT22;57451;52.496;13.456;2023-04-30T06:37:43;8.40;61.00
70079;DHT22;57451;52.496;13.456;2023-04-30T06:40:11;8.50;60.90
70079;DHT22;57451;52.496;13.456;2023-04-30T06:42:38;8.50;60.20
70079;DHT22;57451;52.496;13.456;2023-04-30T06:45:06;8.60;60.50
70079;DHT22;57451;52.496;13.456;2023-04-30T06:47:34;8.70;60.40
70079;DHT22;57451;52.496;13.456;2023-04-30T06:50:04;8.70;60.10
70079;DHT22;57451;52.496;13.456;2023-04-30T06:52:34;8.80;60.30
70079;DHT22;57451;52.496;13.456;2023-04-30T06:55:02;8.90;60.20
70079;DHT22;57451;52.496;13.456;2023-04-30T06:57:29;9.00;59.80
70079;DHT22;57451;52.496;13.456;2023-04-30T06:59:58;9.10;59.70
70079;DHT22;57451;52.496;13.456;2023-04-30T07:02:25;9.20;59.80
70079;DHT22;57451;52.496;13.456;2023-04-30T07:04:52;9.20;58.70
70079;DHT22;57451;52.496;13.456;2023-04-30T07:07:20;9.30;58.60
70079;DHT22;57451;52.496;13.456;2023-04-30T07:09:50;9.40;58.40
70079;DHT22;57451;52.496;13.456;2023-04-30T07:12:20;9.40;58.80
70079;DHT22;57451;52.496;13.456;2023-04-30T07:14:48;9.50;58.10
70079;DHT22;57451;52.496;13.456;2023-04-30T07:17:15;9.50;58.50
70079;DHT22;57451;52.496;13.456;2023-04-30T07:19:42;9.60;58.90
70079;DHT22;57451;52.496;13.456;2023-04-30T07:22:10;9.70;58.80
70079;DHT22;57451;52.496;13.456;2023-04-30T07:24:37;9.80;58.70
70079;DHT22;57451;52.496;13.456;2023-04-30T07:27:06;9.80;57.10
70079;DHT22;57451;52.496;13.456;2023-04-30T07:29:34;9.90;57.80
70079;DHT22;57451;52.496;13.456;2023-04-30T07:32:01;10.00;57.60
70079;DHT22;57451;52.496;13.456;2023-04-30T07:34:29;10.10;57.30
70079;DHT22;57451;52.496;13.456;2023-04-30T07:36:56;10.10;55.10
70079;DHT22;57451;52.496;13.456;2023-04-30T07:39:23;10.10;56.60
70079;DHT22;57451;52.496;13.456;2023-04-30T07:41:51;10.20;56.10
70079;DHT22;57451;52.496;13.456;2023-04-30T07:44:22;10.20;55.70
70079;DHT22;57451;52.496;13.456;2023-04-30T07:46:49;10.30;54.80
70079;DHT22;57451;52.496;13.456;2023-04-30T07:49:16;10.20;53.60
70079;DHT22;57451;52.496;13.456;2023-04-30T07:51:44;10.30;54.50
70079;DHT22;57451;52.496;13.456;2023-04-30T07:54:12;10.30;53.50
70079;DHT22;57451;52.496;13.456;2023-04-30T07:56:42;10.30;53.60
70079;DHT22;57451;52.496;13.456;2023-04-30T07:59:11;10.40;53.50
70079;DHT22;57451;52.496;13.456;2023-04-30T08:01:40;10.40;52.60
70079;DHT22;57451;52.496;13.456;2023-04-30T08:04:08;10.30;51.50
70079;DHT22;57451;52.496;13.456;2023-04-30T08:06:40;10.20;51.60
70079;DHT22;57451;52.496;13.456;2023-04-30T08:09:11;10.30;52.80
70079;DHT22;57451;52.496;13.456;2023-04-30T08:11:38;10.40;51.70
70079;DHT22;57451;52.496;13.456;2023-04-30T08:14:07;10.40;52.20
70079;DHT22;57451;52.496;13.456;2023-04-30T08:16:35;10.50;53.30
70079;DHT22;57451;52.496;13.456;2023-04-30T08:19:06;10.60;53.50
70079;DHT22;57451;52.496;13.456;2023-04-30T08:21:33;10.70;52.20
70079;DHT22;57451;52.496;13.456;2023-04-30T08:24:01;10.70;51.90
70079;DHT22;57451;52.496;13.456;2023-04-30T08:26:28;10.80;52.00
70079;DHT22;57451;52.496;13.456;2023-04-30T08:29:00;10.90;51.90
70079;DHT22;57451;52.496;13.456;2023-04-30T08:31:28;10.90;48.40
70079;DHT22;57451;52.496;13.456;2023-04-30T08:33:55;10.90;49.10
70079;DHT22;57451;52.496;13.456;2023-04-30T08:36:25;10.90;49.90
70079;DHT22;57451;52.496;13.456;2023-04-30T08:38:55;11.10;50.80
70079;DHT22;57451;52.496;13.456;2023-04-30T08:41:25;11.10;49.80
70079;DHT22;57451;52.496;13.456;2023-04-30T08:43:53;11.20;48.70
70079;DHT22;57451;52.496;13.456;2023-04-30T08:46:22;11.30;48.00
70079;DHT22;57451;52.496;13.456;2023-04-30T08:48:50;11.20;47.80
70079;DHT22;57451;52.496;13.456;2023-04-30T08:51:18;11.30;49.80
70079;DHT22;57451;52.496;13.456;2023-04-30T08:53:50;11.50;49.60
70079;DHT22;57451;52.496;13.456;2023-04-30T08:56:25;11.50;47.80
70079;DHT22;57451;52.496;13.456;2023-04-30T08:58:54;11.60;48.10
70079;DHT22;57451;52.496;13.456;2023-04-30T09:01:25;11.70;49.20
70079;DHT22;57451;52.496;13.456;2023-04-30T09:03:57;11.80;48.50
70079;DHT22;57451;52.496;13.456;2023-04-30T09:06:27;11.90;49.20
70079;DHT22;57451;52.496;13.456;2023-04-30T09:09:10;12.00;47.20
70079;DHT22;57451;52.496;13.456;2023-04-30T09:11:46;12.10;45.90
70079;DHT22;57451;52.496;13.456;2023-04-30T09:14:23;12.20;45.90
70079;DHT22;57451;52.496;13.456;2023-04-30T09:17:01;12.30;46.00
70079;DHT22;57451;52.496;13.456;2023-04-30T09:19:36;12.40;46.70
70079;DHT22;57451;52.496;13.456;2023-04-30T09:22:26;12.40;45.30
70079;DHT22;57451;52.496;13.456;2023-04-30T09:25:06;12.50;45.00
70079;DHT22;57451;52.496;13.456;2023-04-30T09:27:46;12.60;46.10
70079;DHT22;57451;52.496;13.456;2023-04-30T09:30:29;12.70;44.10
70079;DHT22;57451;52.496;13.456;2023-04-30T09:32:59;12.80;44.60
70079;DHT22;57451;52.496;13.456;2023-04-30T09:35:34;12.90;44.40
70079;DHT22;57451;52.496;13.456;2023-04-30T09:38:24;12.90;44.50
70079;DHT22;57451;52.496;13.456;2023-04-30T09:40:53;13.00;44.10
70079;DHT22;57451;52.496;13.456;2023-04-30T09:43:21;13.00;42.10
70079;DHT22;57451;52.496;13.456;2023-04-30T09:45:48;13.10;41.60
70079;DHT22;57451;52.496;13.456;2023-04-30T09:48:21;13.20;40.90
70079;DHT22;57451;52.496;13.456;2023-04-30T09:50:51;13.20;42.80
70079;DHT22;57451;52.496;13.456;2023-04-30T09:53:22;13.40;42.90
70079;DHT22;57451;52.496;13.456;2023-04-30T09:55:52;13.50;42.90
70079;DHT22;57451;52.496;13.456;2023-04-30T09:58:27;13.50;41.00
70079;DHT22;57451;52.496;13.456;2023-04-30T10:00:57;13.50;41.80
70079;DHT22;57451;52.496;13.456;2023-04-30T10:03:40;13.50;40.90
70079;DHT22;57451;52.496;13.456;2023-04-30T10:06:11;13.50;39.80
70079;DHT22;57451;52.496;13.456;2023-04-30T10:08:47;13.70;41.50
70079;DHT22;57451;52.496;13.456;2023-04-30T10:11:20;13.70;40.00
70079;DHT22;57451;52.496;13.456;2023-04-30T10:13:56;13.80;41.20
70079;DHT22;57451;52.496;13.456;2023-04-30T10:16:42;13.80;40.00
70079;DHT22;57451;52.496;13.456;2023-04-30T10:19:29;13.90;39.80
70079;DHT22;57451;52.496;13.456;2023-04-30T10:22:02;13.90;39.60
70079;DHT22;57451;52.496;13.456;2023-04-30T10:24:36;14.00;38.00
70079;DHT22;57451;52.496;13.456;2023-04-30T10:27:14;14.00;41.10
70079;DHT22;57451;52.496;13.456;2023-04-30T10:29:47;14.10;40.10
70079;DHT22;57451;52.496;13.456;2023-04-30T10:32:35;14.20;39.70
70079;DHT22;57451;52.496;13.456;2023-04-30T10:35:25;14.20;38.40
70079;DHT22;57451;52.496;13.456;2023-04-30T10:38:12;14.30;38.60
70079;DHT22;57451;52.496;13.456;2023-04-30T10:40:46;14.40;39.30
70079;DHT22;57451;52.496;13.456;2023-04-30T10:43:29;14.40;37.20
70079;DHT22;57451;52.496;13.456;2023-04-30T10:46:21;14.40;38.30
70079;DHT22;57451;52.496;13.456;2023-04-30T10:52:24;14.60;39.10
70079;DHT22;57451;52.496;13.456;2023-04-30T10:55:16;14.80;39.20
70079;DHT22;57451;52.496;13.456;2023-04-30T10:57:50;14.70;37.80
70079;DHT22;57451;52.496;13.456;2023-04-30T11:00:42;14.80;37.80
70079;DHT22;57451;52.496;13.456;2023-04-30T11:03:30;14.80;36.40
70079;DHT22;57451;52.496;13.456;2023-04-30T11:06:15;14.90;36.70
70079;DHT22;57451;52.496;13.456;2023-04-30T11:09:09;15.00;37.40
70079;DHT22;57451;52.496;13.456;2023-04-30T11:12:11;15.10;38.00
70079;DHT22;57451;52.496;13.456;2023-04-30T11:14:44;15.20;37.20
70079;DHT22;57451;52.496;13.456;2023-04-30T11:17:38;15.20;37.70
70079;DHT22;57451;52.496;13.456;2023-04-30T11:20:20;15.40;36.10
70079;DHT22;57451;52.496;13.456;2023-04-30T11:23:16;15.40;38.30
70079;DHT22;57451;52.496;13.456;2023-04-30T11:26:13;15.50;38.10
70079;DHT22;57451;52.496;13.456;2023-04-30T11:28:58;15.50;37.20
70079;DHT22;57451;52.496;13.456;2023-04-30T11:31:41;15.70;37.00
70079;DHT22;57451;52.496;13.456;2023-04-30T11:34:22;15.70;37.50
70079;DHT22;57451;52.496;13.456;2023-04-30T11:36:51;15.80;35.50
70079;DHT22;57451;52.496;13.456;2023-04-30T11:39:24;15.80;36.70
70079;DHT22;57451;52.496;13.456;2023-04-30T11:41:53;15.90;37.00
70079;DHT22;57451;52.496;13.456;2023-04-30T11:44:25;16.10;37.70
70079;DHT22;57451;52.496;13.456;2023-04-30T11:46:54;16.10;36.80
70079;DHT22;57451;52.496;13.456;2023-04-30T11:49:27;16.20;37.60
70079;DHT22;57451;52.496;13.456;2023-04-30T11:51:57;16.30;37.70
70079;DHT22;57451;52.496;13.456;2023-04-30T11:54:25;16.40;35.20
70079;DHT22;57451;52.496;13.456;2023-04-30T11:56:57;16.50;34.60
70079;DHT22;57451;52.496;13.456;2023-04-30T11:59:40;16.60;36.40
70079;DHT22;57451;52.496;13.456;2023-04-30T12:02:28;16.70;36.10
70079;DHT22;57451;52.496;13.456;2023-04-30T12:05:27;16.90;36.40
70079;DHT22;57451;52.496;13.456;2023-04-30T12:12:03;17.20;34.10
70079;DHT22;57451;52.496;13.456;2023-04-30T12:15:18;17.40;34.50
70079;DHT22;57451;52.496;13.456;2023-04-30T12:21:36;18.10;35.80
70079;DHT22;57451;52.496;13.456;2023-04-30T12:24:29;18.40;33.30
70079;DHT22;57451;52.496;13.456;2023-04-30T12:27:01;18.80;34.00
70079;DHT22;57451;52.496;13.456;2023-04-30T12:29:34;19.30;31.30
70079;DHT22;57451;52.496;13.456;2023-04-30T12:32:04;19.70;34.10
70079;DHT22;57451;52.496;13.456;2023-04-30T12:34:37;20.30;34.00
70079;DHT22;57451;52.496;13.456;2023-04-30T12:37:10;20.60;33.00
70079;DHT22;57451;52.496;13.456;2023-04-30T12:39:49;20.80;31.30
70079;DHT22;57451;52.496;13.456;2023-04-30T12:42:43;21.20;31.70
70079;DHT22;57451;52.496;13.456;2023-04-30T12:45:51;21.70;30.80
70079;DHT22;57451;52.496;13.456;2023-04-30T12:48:46;22.20;31.60
70079;DHT22;57451;52.496;13.456;2023-04-30T12:51:51;22.30;30.20
70079;DHT22;57451;52.496;13.456;2023-04-30T12:58:58;22.90;29.60
70079;DHT22;57451;52.496;13.456;2023-04-30T13:38:32;26.50;28.40
70079;DHT22;57451;52.496;13.456;2023-04-30T15:40:10;25.40;27.40
70079;DHT22;57451;52.496;13.456;2023-04-30T15:42:41;25.30;28.90
70079;DHT22;57451;52.496;13.456;2023-04-30T15:45:09;25.30;28.20
70079;DHT22;57451;52.496;13.456;2023-04-30T15:47:37;25.20;28.50
70079;DHT22;57451;52.496;13.456;2023-04-30T15:50:05;25.20;28.10
70079;DHT22;57451;52.496;13.456;2023-04-30T15:52:33;25.10;28.50
70079;DHT22;57451;52.496;13.456;2023-04-30T15:55:00;25.00;27.70
70079;DHT22;57451;52.496;13.456;2023-04-30T15:57:28;24.90;29.10
70079;DHT22;57451;52.496;13.456;2023-04-30T15:59:56;24.90;27.20
70079;DHT22;57451;52.496;13.456;2023-04-30T16:02:23;24.70;27.10
70079;DHT22;57451;52.496;13.456;2023-04-30T16:04:51;24.60;28.20
70079;DHT22;57451;52.496;13.456;2023-04-30T16:07:18;24.40;28.00
70079;DHT22;57451;52.496;13.456;2023-04-30T16:09:45;24.30;27.20
70079;DHT22;57451;52.496;13.456;2023-04-30T16:12:15;24.00;27.80
70079;DHT22;57451;52.496;13.456;2023-04-30T16:14:43;24.00;27.80
70079;DHT22;57451;52.496;13.456;2023-04-30T16:17:11;24.00;28.60
70079;DHT22;57451;52.496;13.456;2023-04-30T16:19:38;23.90;28.50
70079;DHT22;57451;52.496;13.456;2023-04-30T16:22:05;23.80;29.00
70079;DHT22;57451;52.496;13.456;2023-04-30T16:24:35;23.70;28.60
70079;DHT22;57451;52.496;13.456;2023-04-30T16:27:02;23.60;29.30
70079;DHT22;57451;52.496;13.456;2023-04-30T16:29:30;23.50;29.20
70079;DHT22;57451;52.496;13.456;2023-04-30T16:31:58;23.40;29.40
70079;DHT22;57451;52.496;13.456;2023-04-30T16:34:25;23.30;29.10
70079;DHT22;57451;52.496;13.456;2023-04-30T16:36:53;23.10;28.10
70079;DHT22;57451;52.496;13.456;2023-04-30T16:39:20;22.80;29.40
70079;DHT22;57451;52.496;13.456;2023-04-30T16:41:47;22.60;28.50
70079;DHT22;57451;52.496;13.456;2023-04-30T16:44:14;22.30;28.80
70079;DHT22;57451;52.496;13.456;2023-04-30T16:46:41;22.10;29.50
70079;DHT22;57451;52.496;13.456;2023-04-30T17:08:55;20.10;29.90
70079;DHT22;57451;52.496;13.456;2023-04-30T17:12:01;19.70;30.50
70079;DHT22;57451;52.496;13.456;2023-04-30T17:16:04;19.50;31.00
70079;DHT22;57451;52.496;13.456;2023-04-30T17:20:53;19.20;31.20
70079;DHT22;57451;52.496;13.456;2023-04-30T17:23:49;18.80;31.40
70079;DHT22;57451;52.496;13.456;2023-04-30T17:37:47;17.90;32.30
70079;DHT22;57451;52.496;13.456;2023-04-30T17:40:35;17.70;32.50
70079;DHT22;57451;52.496;13.456;2023-04-30T17:43:37;17.50;32.90
70079;DHT22;57451;52.496;13.456;2023-04-30T17:46:17;17.40;33.00
70079;DHT22;57451;52.496;13.456;2023-04-30T17:52:36;17.10;32.80
70079;DHT22;57451;52.496;13.456;2023-04-30T17:55:44;16.90;33.20
70079;DHT22;57451;52.496;13.456;2023-04-30T17:58:44;16.80;33.10
70079;DHT22;57451;52.496;13.456;2023-04-30T18:01:36;16.60;32.30
70079;DHT22;57451;52.496;13.456;2023-04-30T18:04:38;16.50;33.40
70079;DHT22;57451;52.496;13.456;2023-04-30T18:07:13;16.30;33.40
70079;DHT22;57451;52.496;13.456;2023-04-30T18:09:54;16.20;33.10
70079;DHT22;57451;52.496;13.456;2023-04-30T18:12:42;16.10;33.50
70079;DHT22;57451;52.496;13.456;2023-04-30T18:15:18;16.00;33.60
70079;DHT22;57451;52.496;13.456;2023-04-30T18:18:10;15.90;33.30
70079;DHT22;57451;52.496;13.456;2023-04-30T18:21:29;15.70;33.30
70079;DHT22;57451;52.496;13.456;2023-04-30T18:24:45;15.60;33.70
70079;DHT22;57451;52.496;13.456;2023-04-30T18:31:30;15.40;34.10
70079;DHT22;57451;52.496;13.456;2023-04-30T18:34:00;15.20;34.20
70079;DHT22;57451;52.496;13.456;2023-04-30T18:36:30;15.10;34.20
70079;DHT22;57451;52.496;13.456;2023-04-30T18:45:28;14.80;34.40
70079;DHT22;57451;52.496;13.456;2023-04-30T19:43:28;12.90;37.80
70079;DHT22;57451;52.496;13.456;2023-04-30T19:46:05;12.90;37.90
70079;DHT22;57451;52.496;13.456;2023-04-30T19:48:52;12.80;38.30
70079;DHT22;57451;52.496;13.456;2023-04-30T19:52:03;12.80;38.60
70079;DHT22;57451;52.496;13.456;2023-04-30T20:27:13;12.10;41.70
70079;DHT22;57451;52.496;13.456;2023-04-30T20:34:49;12.00;42.60
70079;DHT22;57451;52.496;13.456;2023-04-30T20:45:39;11.70;42.70
70079;DHT22;57451;52.496;13.456;2023-04-30T21:48:25;10.50;48.10
70079;DHT22;57451;52.496;13.456;2023-04-30T21:50:53;10.40;48.20
70079;DHT22;57451;52.496;13.456;2023-04-30T21:53:20;10.40;48.60
70079;DHT22;57451;52.496;13.456;2023-04-30T21:55:47;10.30;48.70
70079;DHT22;57451;52.496;13.456;2023-04-30T21:58:15;10.30;49.00
70079;DHT22;57451;52.496;13.456;2023-04-30T22:00:42;10.30;48.80
70079;DHT22;57451;52.496;13.456;2023-04-30T22:03:10;10.20;49.00
70079;DHT22;57451;52.496;13.456;2023-04-30T22:05:39;10.20;48.60
70079;DHT22;57451;52.496;13.456;2023-04-30T22:08:11;10.20;48.70
70079;DHT22;57451;52.496;13.456;2023-04-30T22:10:38;10.10;48.60
70079;DHT22;57451;52.496;13.456;2023-04-30T22:13:06;10.10;49.00
70079;DHT22;57451;52.496;13.456;2023-04-30T22:15:33;10.10;49.10
70079;DHT22;57451;52.496;13.456;2023-04-30T22:18:14;10.10;48.90